Ko Samui, Thaïlande

22:05 ICT le 20 décembre 2014 (GMT +0700)
Samui | Change Station
CLOSE
Current Station
Aéroport
Location: Samui,
Altitude: 66 ft
Stations météo à proximité

Alt. 66 ft 9.55 °N, 100.06 °E | Updated 1 hour ago

Mostly Cloudy
Nuageux
82 ° F
Paraît 88 ° F
N
7
Vent Variable Vent de NNE

Aujourd'hui
Haut(e) -- | Bas -- ° F
--% Risque de précip.
Hier
Haut(e) -- | Bas -- ° F
Precip. -- pouce
6:30 AM 6:04 PM
Lune descendante, 3% visible
Pression 29.92 pouce
Visibilité 6.2 Miles terrestres
Nuages Peu 2000 ft
Nuageux 30000 ft
indice de chaleur 88 ° F
Point de rosée 73 ° F
Humidité 74%
Précipitations 0.00 pouce
Profondeur de la couche neigeuse Non disponible.
UV 0 sur 12
Pollen Non disponible.
Qualité de l'air Non disponible.
Flu Activity Non disponible.
METAR VTSM 201400Z 03006KT 9999 FEW020 BKN300 28/23 Q1013 A2992

More Conditions Fewer Conditions

Pression 29.92 pouce
Visibilité 6.2 Miles terrestres
Nuages Peu 2000 ft
Nuageux 30000 ft
indice de chaleur 88 ° F
Point de rosée 73 ° F
Humidité 74%
Précipitations 0.00 pouce
Profondeur de la couche neigeuse Non disponible.
UV 0 sur 12
Pollen Non disponible.
Qualité de l'air Non disponible.
Flu Activity Non disponible.
METAR VTSM 201400Z 03006KT 9999 FEW020 BKN300 28/23 Q1013 A2992

More Conditions Fewer Conditions

10-Day Weather Forecast

Almanac

Astronomie

Dec. 20, 2014 Lever Coucher
Temps réel
Crépuscule civil
Crépuscule nautique
Crépuscule astronomique
Lune
Durée de lumière visible
Longueur du jour
Tomorrow will be .
, % of the Moon is Illuminated

Extrêmes aujourd'hui

Country Highs Country Lows

Community

WunderPhotos

Upload Photos

1,779,199 Photos téléchargées !

WunderBlogs® & News

Nearby

Qualité de l'air

  Qualité de l'air Indice de la qualité de l'air Polluant
Not available.

Épaisseur de neige

Station Depth Altitude

Activité sismique

Ville Distance Mag. Time & Date
Minimum magnitude displayed is 2.5.

Températures des eaux côtières

Lieu Température

Stations météo à proximité